Placentia, CA

5:08 PM PST en Noviembre 28, 2014 (GMT -0800)
Yorba Linda Blvd. | Change Station
CLOSE
Current Station
Estación meteorológica personal
Location: Placentia, CA
Altura: 308 ft
Estaciones meteorológicas cercanas
Aviso en curso: Beach Hazard Statement Aviso activo: Record Report

Alt 308 ft 33.89 °N, 117.84 °W | Updated 8 minutes ago

Despejado
Despejado
71.9 ° F
Sensación térmica 76 ° F
N
0.0
Viento Variable Viento desde SO

Hoy
Alta -- | Baja -- ° F
--% Posibilidad de precipitaciones
Ayer
Alta -- | Baja -- ° F
Precip. -- pul
6:35 AM 4:42 PM
Creciente, 46% visible
Presión 29.88 pul
Visibilidad 10.0 Millas
Nubes Despejado
Índice de calor 76 ° F
Punto de rocío 38 ° F
Humedad 29%
Precipitaciones 0.00 pul
Espesor de la nieve No disponible.
UV 0 de una escala de 12
Polen 2.10 de una escala de 12
Calidad del aire No disponible.
Flu Activity No disponible.
METAR KFUL 290053Z 22003KT 10SM CLR 22/03 A2988 RMK AO2 SLP116 T02220033

More Conditions Fewer Conditions

Presión 29.88 pul
Visibilidad 10.0 Millas
Nubes Despejado
Índice de calor 76 ° F
Punto de rocío 38 ° F
Humedad 29%
Precipitaciones 0.00 pul
Espesor de la nieve No disponible.
UV 0 de una escala de 12
Polen 2.10 de una escala de 12
Calidad del aire No disponible.
Flu Activity No disponible.
METAR KFUL 290053Z 22003KT 10SM CLR 22/03 A2988 RMK AO2 SLP116 T02220033

More Conditions Fewer Conditions

10-Day Weather Forecast

Almanac

Astronomía

Nov. 28, 2014 Salida Puesta
Hora real
Crepúsculo civil
Crepúsculo náutico
Crepúsculo astronómico
Luna
Horas de luz
Horas de luz
Tomorrow will be .
, % of the Moon is Illuminated

Extremos de hoy

Máximos del estado Bajos del estado

Community

WunderPhotos

Upload Photos

1,774,360 ¡fotos cargadas!

WunderBlogs® & News

Nearby

Calidad del aire

  Calidad del aire Índice AQ Contaminante
Not available.

Grosos de nieve

Estación Profundido Altura

Actividad de terremotos

Ciudad Distance Mag. Tiempo y dato
Magnitud mínima muestra es 2,5.

Temperaturas de aguas costeras

Lugar Temperatura

Estaciones meteorológicas cercanas